Winnetoon, NE (68789)

11:53 AM CST on December 18, 2014 (GMT -0600)
50196 US Highway 20 | Change Station
CLOSE
Current Station
Personal Weather Station
Location: Inman, NE
Elevation: 1903 ft
Nearby Weather Stations

Elev 1903 ft 42.34 °N, 98.46 °W | Updated 15 seconds ago

Overcast
Overcast
27.0 °F
Feels Like 22 °F
N
4.0
Wind Variable Wind from South
Gusts 6.0 mph

Today
High -- | Low -- °F
--% Chance of Precip.
Yesterday
High -- | Low -- °F
Precip. -- in
7:56 AM 5:00 PM
Waning Crescent, 13% visible
Pressure 30.15 in
Visibility 5.0 miles
Clouds Overcast 700 ft
Windchill 22 °F
Dew Point -5 °F
Humidity 24%
Rainfall 0.00 in
Snow Depth Not available.
UV 1 out of 12
Pollen .10 out of 12
Air Quality Not available.
Flu Activity Not available.
METAR KONL 181735Z AUTO 19004KT 5SM BR OVC007 M03/M04 A3015 RMK AO2 T10331040

More Conditions Fewer Conditions

Pressure 30.15 in
Visibility 5.0 miles
Clouds Overcast 700 ft
Windchill 22 °F
Dew Point -5 °F
Humidity 24%
Rainfall 0.00 in
Snow Depth Not available.
UV 1 out of 12
Pollen .10 out of 12
Air Quality Not available.
Flu Activity Not available.
METAR KONL 181735Z AUTO 19004KT 5SM BR OVC007 M03/M04 A3015 RMK AO2 T10331040

More Conditions Fewer Conditions

10-Day Weather Forecast

Almanac

Astronomy

Dec. 18, 2014 Rise Set
Actual Time
Civil Twilight
Nautical Twilight
Astronomical Twilight
Moon
Length of Visible Light
Length of Day
Tomorrow will be .
, % of the Moon is Illuminated

Today's Extremes

State Highs State Lows

Community

WunderPhotos

Upload Photos

1,778,969 photos uploaded!

WunderBlogs® & News

Nearby

Air Quality

  Air Quality AQ Index Pollutant
Not available.

Snow Depth

Station Depth Elevation

Earthquake Activity

City Distance Mag. Time & Date
Minimum magnitude displayed is 2.5.

Coastal Water Temperatures

Place Temperature

Nearby Weather Stations